Pagina principale
METAR-TAF:

METAR-TAF

Aeroporti :

Cerklje ob Krki, Slovenia

latitudine: 45-53-59N, longitudine: 15-30-55E, altezza: 157 m

Osservazione

Il bollettino è stato emesso 16 minuti fa, alle 13:00 UTC
Vento 2 kt da direzioni variabili
Temperature 0°C
Umidità 100%
Pressione 1022 hPa
Visibilità: 0300 m
nebbia

METAR: LJCE 061300Z VRB02KT 0300 FG VV002 00/M00 Q1022 RMK RED

Ora: 14:16 (13:16 UTC)

Previsione

Il bollettino è stato emesso 2 ore e 16 minuti fa, alle 11:00 UTC
Previsione valida dal 06 alle 12 UTC al 06 alle 21 UTC
Vento 2 kt da direzioni variabili
Visibilità: 0300 m
ad un'altezza di 200 ft
nebbia che ghiaccia
Temporaneamente
dal 06 alle 12 UTC al 06 alle 19 UTC
Visibilità: 0800 m
Probabilità 40% :
Temporaneamente
dal 06 alle 14 UTC al 06 alle 21 UTC
Visibilità: 7000 m
Nuvoloso ad un'altezza di 3000 ft

TAF: LJCE 061100Z 0612/0621 VRB02KT 0300 FZFG VV002 TEMPO 0612/0619 0800 PROB40 TEMPO 0614/0621 7000 NSW BKN030

Osservazioni e previsioni meteorologiche di più di 4000 aeroporti (messaggi METAR e TAF).

Le stazioni disponibili sono rappresentate dai dischi gialli e rossi sulla carta.

Puntare il mouse per vedere il nome della stazione.

Clicca sopra per visualizzare le osservazioni e previsioni meteorologiche.

Per cambiare la mappa : fare clic sui pulsanti verdi con una croce nera per ingrandire, il pulsante verde con un trattino per diminuire, o sulla freccia verde per le mappe adiacenti.


METAR-TAF: